Time;durP1;ratioP1;P1;durP2;ratioP2;P2;SDS_P1;SDS_P2;PMS_P1;PMS_P2;Temp;Humidity;BMP_temperature;BMP_pressure;BME280_temperature;BME280_humidity;BME280_pressure;Samples;Min_cycle;Max_cycle;Signal;HPM_P1;HPM_P2
2023/06/02 00:01:54;;;;;;;11.88;5.75;;;;;;;;;;1794864;80;25568;-48
2023/06/02 00:04:23;;;;;;;20.43;6.95;;;;;;;;;;1794916;80;25563;-51
2023/06/02 00:06:50;;;;;;;13.48;5.97;;;;;;;;;;1794623;80;25493;-51
2023/06/02 00:09:19;;;;;;;14.18;5.58;;;;;;;;;;1795130;80;25322;-51
2023/06/02 00:11:47;;;;;;;10.18;5.58;;;;;;;;;;1795071;78;27257;-51
2023/06/02 00:14:14;;;;;;;17.30;5.67;;;;;;;;;;1794929;80;25521;-51
2023/06/02 00:16:46;;;;;;;13.45;6.40;;;;;;;;;;1795109;80;25549;-51
2023/06/02 00:19:16;;;;;;;12.25;6.08;;;;;;;;;;1794910;80;25498;-51
2023/06/02 00:21:45;;;;;;;13.95;5.67;;;;;;;;;;1795133;78;25439;-51
2023/06/02 00:24:12;;;;;;;13.45;6.17;;;;;;;;;;1795061;80;27197;-51
2023/06/02 00:26:40;;;;;;;16.07;5.72;;;;;;;;;;1794825;80;25514;-51
2023/06/02 00:29:07;;;;;;;16.87;6.33;;;;;;;;;;1795065;80;25463;-50
2023/06/02 00:31:34;;;;;;;13.18;5.87;;;;;;;;;;1794879;80;25554;-51
2023/06/02 00:34:03;;;;;;;11.20;5.20;;;;;;;;;;1795089;80;25426;-48
2023/06/02 00:36:30;;;;;;;14.98;7.42;;;;;;;;;;1794920;80;27183;-49
2023/06/02 00:38:57;;;;;;;11.93;6.55;;;;;;;;;;1794851;80;25420;-47
2023/06/02 00:41:23;;;;;;;12.23;6.78;;;;;;;;;;1794911;80;25352;-51
2023/06/02 00:43:50;;;;;;;15.13;6.08;;;;;;;;;;1794861;80;25409;-51
2023/06/02 00:46:19;;;;;;;14.23;6.60;;;;;;;;;;1795018;80;25586;-47
2023/06/02 00:48:49;;;;;;;14.55;6.12;;;;;;;;;;1777971;80;27264;-47
2023/06/02 00:51:18;;;;;;;15.18;5.62;;;;;;;;;;1777935;80;25497;-49
2023/06/02 00:53:46;;;;;;;10.20;5.70;;;;;;;;;;1777220;80;25310;-47
2023/06/02 00:56:16;;;;;;;15.10;6.55;;;;;;;;;;1778009;80;27486;-48
2023/06/02 00:58:45;;;;;;;15.95;7.15;;;;;;;;;;1778122;80;25352;-48
2023/06/02 01:01:12;;;;;;;17.40;6.83;;;;;;;;;;1778103;80;27245;-48
2023/06/02 01:03:43;;;;;;;13.75;6.42;;;;;;;;;;1777854;80;25293;-47
2023/06/02 01:06:13;;;;;;;12.40;5.92;;;;;;;;;;1778001;80;25293;-48
2023/06/02 01:08:41;;;;;;;13.15;6.03;;;;;;;;;;1777955;80;25415;-48
2023/06/02 01:11:10;;;;;;;14.65;6.42;;;;;;;;;;1778089;80;25326;-47
2023/06/02 01:13:39;;;;;;;12.55;6.08;;;;;;;;;;1778095;80;27129;-48
2023/06/02 01:16:06;;;;;;;15.13;6.42;;;;;;;;;;1777978;80;25741;-48
2023/06/02 01:18:35;;;;;;;12.95;6.25;;;;;;;;;;1777942;80;25313;-47
2023/06/02 01:21:05;;;;;;;12.90;6.33;;;;;;;;;;1778060;80;25458;-47
2023/06/02 01:23:36;;;;;;;14.90;6.50;;;;;;;;;;1777980;80;25342;-47
2023/06/02 01:26:05;;;;;;;16.65;6.33;;;;;;;;;;1778000;80;27867;-47
2023/06/02 01:28:33;;;;;;;15.85;7.35;;;;;;;;;;1778099;80;25559;-48
2023/06/02 01:31:10;;;;;;;13.20;6.80;;;;;;;;;;1777925;80;25334;-48
2023/06/02 01:33:40;;;;;;;12.80;6.45;;;;;;;;;;1777883;80;25376;-48
2023/06/02 01:36:07;;;;;;;15.50;6.75;;;;;;;;;;1777287;80;25260;-52
2023/06/02 01:38:37;;;;;;;15.90;7.33;;;;;;;;;;1777972;80;27862;-49
2023/06/02 01:41:06;;;;;;;16.67;7.15;;;;;;;;;;1777948;80;27135;-51
2023/06/02 01:43:35;;;;;;;14.65;6.83;;;;;;;;;;1777960;80;25496;-49
2023/06/02 01:46:04;;;;;;;16.60;7.55;;;;;;;;;;1778036;80;25346;-48
2023/06/02 01:48:31;;;;;;;9.60;5.90;;;;;;;;;;1791317;80;25423;-47
2023/06/02 01:50:59;;;;;;;11.38;5.92;;;;;;;;;;1794995;80;27904;-48
2023/06/02 01:53:26;;;;;;;17.32;6.35;;;;;;;;;;1794774;78;25548;-49
2023/06/02 01:55:56;;;;;;;19.12;7.12;;;;;;;;;;1794840;80;25400;-48
2023/06/02 01:58:23;;;;;;;13.93;6.45;;;;;;;;;;1794971;80;27546;-48
2023/06/02 02:00:54;;;;;;;17.05;7.00;;;;;;;;;;1794917;80;25457;-48
2023/06/02 02:03:24;;;;;;;10.35;5.65;;;;;;;;;;1794312;80;27242;-49
2023/06/02 02:05:49;;;;;;;23.67;7.15;;;;;;;;;;1794086;79;25512;-48
2023/06/02 02:08:17;;;;;;;16.67;6.60;;;;;;;;;;1794863;80;25476;-48
2023/06/02 02:10:45;;;;;;;13.72;6.95;;;;;;;;;;1794987;80;25515;-49
2023/06/02 02:13:12;;;;;;;15.23;6.47;;;;;;;;;;1794856;80;25395;-48
2023/06/02 02:15:39;;;;;;;16.23;6.50;;;;;;;;;;1794875;80;27387;-49
2023/06/02 02:18:08;;;;;;;16.93;6.80;;;;;;;;;;1794912;80;25451;-48
2023/06/02 02:20:44;;;;;;;11.18;6.37;;;;;;;;;;1794918;80;25470;-49
2023/06/02 02:23:08;;;;;;;18.30;7.03;;;;;;;;;;1793791;80;25497;-49
2023/06/02 02:25:35;;;;;;;12.60;6.78;;;;;;;;;;1794821;80;25316;-49
2023/06/02 02:28:03;;;;;;;13.65;6.83;;;;;;;;;;1794993;80;27190;-51
2023/06/02 02:30:31;;;;;;;13.95;6.30;;;;;;;;;;1794754;80;25431;-52
2023/06/02 02:33:01;;;;;;;13.22;6.37;;;;;;;;;;1794867;80;25435;-52
2023/06/02 02:35:27;;;;;;;16.73;7.17;;;;;;;;;;1794206;80;25372;-52
2023/06/02 02:37:54;;;;;;;15.63;7.30;;;;;;;;;;1794874;80;25445;-48
2023/06/02 02:40:21;;;;;;;12.95;7.30;;;;;;;;;;1794796;80;27219;-48
2023/06/02 02:42:48;;;;;;;17.67;6.80;;;;;;;;;;1794794;80;25516;-48
2023/06/02 02:45:15;;;;;;;16.57;7.87;;;;;;;;;;1794871;80;25385;-48
2023/06/02 02:47:42;;;;;;;17.17;7.80;;;;;;;;;;1794726;80;25488;-47
2023/06/02 02:50:10;;;;;;;14.97;7.97;;;;;;;;;;1795112;80;25370;-47
2023/06/02 02:52:38;;;;;;;13.62;7.28;;;;;;;;;;1794864;80;27251;-47
2023/06/02 02:55:07;;;;;;;13.62;8.15;;;;;;;;;;1794837;80;25453;-47
2023/06/02 02:57:34;;;;;;;12.18;6.95;;;;;;;;;;1795239;80;25341;-47
2023/06/02 03:00:01;;;;;;;13.13;6.65;;;;;;;;;;1794847;80;25414;-47
2023/06/02 03:02:30;;;;;;;15.08;6.97;;;;;;;;;;1794990;80;25419;-48
2023/06/02 03:04:57;;;;;;;16.12;6.50;;;;;;;;;;1794813;80;27309;-48
2023/06/02 03:07:24;;;;;;;14.28;6.95;;;;;;;;;;1795465;80;25459;-50
2023/06/02 03:09:52;;;;;;;18.82;7.12;;;;;;;;;;1795208;80;25464;-49
2023/06/02 03:12:19;;;;;;;13.70;7.03;;;;;;;;;;1795051;80;25362;-49
2023/06/02 03:14:48;;;;;;;13.58;7.25;;;;;;;;;;1794829;80;25293;-48
2023/06/02 03:17:17;;;;;;;18.10;8.18;;;;;;;;;;1795046;78;27222;-48
2023/06/02 03:19:44;;;;;;;14.40;6.92;;;;;;;;;;1795070;80;25306;-48
2023/06/02 03:22:11;;;;;;;14.70;7.75;;;;;;;;;;1795093;79;25523;-48
2023/06/02 03:24:38;;;;;;;15.20;7.50;;;;;;;;;;1794938;80;25455;-47
2023/06/02 03:27:13;;;;;;;20.68;7.50;;;;;;;;;;1795005;80;25467;-47
2023/06/02 03:29:38;;;;;;;19.12;8.45;;;;;;;;;;1793145;80;27322;-47
2023/06/02 03:32:12;;;;;;;17.30;7.33;;;;;;;;;;1795105;80;25741;-47
2023/06/02 03:34:40;;;;;;;17.45;7.05;;;;;;;;;;1795014;80;25389;-47
2023/06/02 03:37:10;;;;;;;15.75;7.80;;;;;;;;;;1795086;79;25311;-48
2023/06/02 03:39:39;;;;;;;15.85;8.05;;;;;;;;;;1795033;80;25525;-47
2023/06/02 03:42:08;;;;;;;15.05;7.25;;;;;;;;;;1795101;80;29381;-48
2023/06/02 03:44:35;;;;;;;18.70;8.63;;;;;;;;;;1795003;80;34641;-48
2023/06/02 03:47:02;;;;;;;18.60;8.03;;;;;;;;;;1794939;80;25428;-48
2023/06/02 03:49:31;;;;;;;22.50;8.33;;;;;;;;;;1779966;80;25442;-48
2023/06/02 03:51:58;;;;;;;17.77;8.55;;;;;;;;;;1778294;80;25316;-48
2023/06/02 03:54:25;;;;;;;16.93;8.33;;;;;;;;;;1778004;80;27144;-48
2023/06/02 03:56:52;;;;;;;13.13;7.60;;;;;;;;;;1777956;80;25487;-48
2023/06/02 03:59:19;;;;;;;14.93;7.42;;;;;;;;;;1777981;80;25406;-48
2023/06/02 04:01:46;;;;;;;14.15;6.97;;;;;;;;;;1778068;80;25511;-48
2023/06/02 04:04:13;;;;;;;12.75;7.53;;;;;;;;;;1778282;80;25480;-48
2023/06/02 04:06:43;;;;;;;13.83;7.30;;;;;;;;;;1778032;80;29397;-48
2023/06/02 04:09:12;;;;;;;26.70;8.03;;;;;;;;;;1777952;80;25852;-48
2023/06/02 04:11:39;;;;;;;;;;;;;;;;;;1780709;80;25455;-51
2023/06/02 04:14:06;;;;;;;15.53;7.87;;;;;;;;;;1777972;80;25511;-48
2023/06/02 04:16:33;;;;;;;21.77;7.90;;;;;;;;;;1778000;80;25266;-49
2023/06/02 04:19:00;;;;;;;19.80;7.70;;;;;;;;;;1778105;80;27267;-48
2023/06/02 04:21:28;;;;;;;19.87;7.33;;;;;;;;;;1778029;80;25649;-48
2023/06/02 04:23:55;;;;;;;16.37;8.05;;;;;;;;;;1777992;80;25434;-49
2023/06/02 04:26:22;;;;;;;13.38;7.60;;;;;;;;;;1777981;80;25607;-50
2023/06/02 04:28:50;;;;;;;12.80;7.25;;;;;;;;;;1777980;80;25369;-49
2023/06/02 04:31:26;;;;;;;16.60;7.70;;;;;;;;;;1778067;80;27207;-49
2023/06/02 04:33:48;;;;;;;16.42;8.98;;;;;;;;;;1776532;80;25524;-49
2023/06/02 04:36:15;;;;;;;14.35;7.10;;;;;;;;;;1778097;80;25306;-49
2023/06/02 04:38:45;;;;;;;12.65;7.00;;;;;;;;;;1777945;80;25446;-49
2023/06/02 04:41:12;;;;;;;14.13;7.83;;;;;;;;;;1778027;80;25454;-50
2023/06/02 04:43:39;;;;;;;20.50;7.70;;;;;;;;;;1777962;80;27240;-51
2023/06/02 04:46:08;;;;;;;15.78;8.13;;;;;;;;;;1777975;80;25733;-50
2023/06/02 04:48:41;;;;;;;12.70;7.83;;;;;;;;;;1784578;80;25483;-49
2023/06/02 04:51:08;;;;;;;18.73;7.50;;;;;;;;;;1794869;80;25446;-47
2023/06/02 04:53:35;;;;;;;15.88;7.55;;;;;;;;;;1795030;80;25478;-48
2023/06/02 04:56:04;;;;;;;15.43;8.70;;;;;;;;;;1794882;80;27187;-49
2023/06/02 04:58:32;;;;;;;16.77;7.40;;;;;;;;;;1794992;80;25329;-48
2023/06/02 05:01:02;;;;;;;14.28;7.85;;;;;;;;;;1795178;80;25478;-48
2023/06/02 05:03:29;;;;;;;19.25;8.50;;;;;;;;;;1795042;80;25377;-48
2023/06/02 05:05:58;;;;;;;21.27;9.55;;;;;;;;;;1795042;80;25310;-49
2023/06/02 05:08:25;;;;;;;20.15;9.20;;;;;;;;;;1794973;80;27267;-48
2023/06/02 05:10:53;;;;;;;21.00;8.90;;;;;;;;;;1794980;80;25301;-51
2023/06/02 05:13:23;;;;;;;23.80;8.48;;;;;;;;;;1794966;80;25556;-49
2023/06/02 05:15:50;;;;;;;20.30;9.18;;;;;;;;;;1795053;80;25522;-49
2023/06/02 05:18:17;;;;;;;24.02;8.30;;;;;;;;;;1794948;80;25498;-48
2023/06/02 05:20:45;;;;;;;13.25;6.95;;;;;;;;;;1795066;80;26930;-49
2023/06/02 05:23:12;;;;;;;13.88;7.17;;;;;;;;;;1794747;80;25427;-50
2023/06/02 05:25:41;;;;;;;17.00;8.03;;;;;;;;;;1794895;80;25476;-49
2023/06/02 05:28:08;;;;;;;13.72;7.78;;;;;;;;;;1795017;80;25526;-48
2023/06/02 05:30:37;;;;;;;18.57;8.03;;;;;;;;;;1794873;80;25271;-51
2023/06/02 05:33:04;;;;;;;15.88;7.58;;;;;;;;;;1795030;80;27260;-50
2023/06/02 05:35:34;;;;;;;18.00;7.90;;;;;;;;;;1795016;80;25769;-47
2023/06/02 05:38:01;;;;;;;15.40;6.83;;;;;;;;;;1795093;80;25384;-55
2023/06/02 05:40:30;;;;;;;14.40;7.12;;;;;;;;;;1794961;78;25475;-49
2023/06/02 05:42:57;;;;;;;13.70;7.45;;;;;;;;;;1794918;80;25450;-51
2023/06/02 05:45:26;;;;;;;15.32;7.95;;;;;;;;;;1794870;80;27275;-49
2023/06/02 05:47:53;;;;;;;15.75;7.40;;;;;;;;;;1794915;80;34682;-48
2023/06/02 05:50:22;;;;;;;15.90;8.30;;;;;;;;;;1794770;80;25436;-49
2023/06/02 05:52:50;;;;;;;16.60;7.85;;;;;;;;;;1794954;80;26200;-53
2023/06/02 05:55:18;;;;;;;10.45;7.62;;;;;;;;;;1795028;80;25356;-51
2023/06/02 05:57:45;;;;;;;14.18;6.97;;;;;;;;;;1794911;80;27252;-53
2023/06/02 06:00:15;;;;;;;15.58;8.30;;;;;;;;;;1794759;80;25476;-50
2023/06/02 06:02:42;;;;;;;15.70;7.78;;;;;;;;;;1794918;80;25486;-49
2023/06/02 06:05:11;;;;;;;18.60;8.00;;;;;;;;;;1795031;80;25662;-50
2023/06/02 06:07:38;;;;;;;13.25;6.92;;;;;;;;;;1795006;80;25346;-49
2023/06/02 06:10:08;;;;;;;13.70;7.90;;;;;;;;;;1794997;80;27837;-49
2023/06/02 06:12:35;;;;;;;19.42;8.33;;;;;;;;;;1794808;80;25507;-50
2023/06/02 06:15:07;;;;;;;18.57;7.83;;;;;;;;;;1794985;80;25444;-49
2023/06/02 06:17:34;;;;;;;16.67;9.68;;;;;;;;;;1794816;80;25356;-50
2023/06/02 06:20:01;;;;;;;19.48;8.45;;;;;;;;;;1794916;80;25382;-49
2023/06/02 06:22:28;;;;;;;17.20;8.03;;;;;;;;;;1794609;80;28282;-52
2023/06/02 06:24:55;;;;;;;19.40;7.90;;;;;;;;;;1794655;80;25466;-49
2023/06/02 06:27:22;;;;;;;16.00;7.92;;;;;;;;;;1794901;80;25348;-52
2023/06/02 06:29:49;;;;;;;15.00;8.33;;;;;;;;;;1794838;80;25332;-50
2023/06/02 06:32:16;;;;;;;18.30;8.35;;;;;;;;;;1794881;80;25350;-51
2023/06/02 06:34:43;;;;;;;15.53;8.08;;;;;;;;;;1794893;80;27297;-50
2023/06/02 06:37:10;;;;;;;11.65;7.22;;;;;;;;;;1794810;80;25453;-52
2023/06/02 06:39:37;;;;;;;17.10;8.03;;;;;;;;;;1793927;80;25599;-49
2023/06/02 06:42:05;;;;;;;13.95;8.65;;;;;;;;;;1794396;80;25414;-51
2023/06/02 06:44:32;;;;;;;15.43;8.78;;;;;;;;;;1794932;80;25356;-50
2023/06/02 06:46:59;;;;;;;20.52;7.87;;;;;;;;;;1794835;80;27208;-50
2023/06/02 06:49:26;;;;;;;14.65;8.78;;;;;;;;;;1794710;80;25538;-49
2023/06/02 06:51:53;;;;;;;14.68;7.75;;;;;;;;;;1794900;80;25459;-48
2023/06/02 06:54:20;;;;;;;18.48;6.85;;;;;;;;;;1794853;80;25336;-48
2023/06/02 06:56:47;;;;;;;15.23;6.90;;;;;;;;;;1794969;80;25483;-48
2023/06/02 06:59:14;;;;;;;18.62;6.58;;;;;;;;;;1794885;80;27098;-48
2023/06/02 07:01:43;;;;;;;14.10;7.37;;;;;;;;;;1794825;80;25478;-48
2023/06/02 07:04:10;;;;;;;13.88;6.60;;;;;;;;;;1795066;80;25431;-49
2023/06/02 07:06:37;;;;;;;13.78;7.03;;;;;;;;;;1794852;80;25392;-49
2023/06/02 07:09:04;;;;;;;14.33;6.45;;;;;;;;;;1794930;80;25520;-49
2023/06/02 07:11:31;;;;;;;12.33;7.25;;;;;;;;;;1794832;80;27851;-50
2023/06/02 07:13:59;;;;;;;14.47;6.35;;;;;;;;;;1794490;80;25357;-49
2023/06/02 07:16:26;;;;;;;9.73;6.22;;;;;;;;;;1794005;80;25711;-52
2023/06/02 07:18:53;;;;;;;12.88;6.53;;;;;;;;;;1794859;80;25961;-53
2023/06/02 07:21:20;;;;;;;13.25;5.97;;;;;;;;;;1795013;80;25348;-53
2023/06/02 07:23:47;;;;;;;7.70;5.20;;;;;;;;;;1795013;80;27321;-53
2023/06/02 07:26:14;;;;;;;11.10;5.97;;;;;;;;;;1794847;80;25550;-52
2023/06/02 07:28:42;;;;;;;11.40;5.87;;;;;;;;;;1765871;80;25511;-52
2023/06/02 07:31:09;;;;;;;9.63;6.00;;;;;;;;;;1794874;80;25512;-50
2023/06/02 07:33:37;;;;;;;11.53;5.72;;;;;;;;;;1758506;80;25430;-49
2023/06/02 07:36:05;;;;;;;7.92;5.17;;;;;;;;;;1794868;80;26434;-49
2023/06/02 07:38:32;;;;;;;9.48;5.17;;;;;;;;;;1794750;80;25506;-49
2023/06/02 07:41:00;;;;;;;8.53;5.50;;;;;;;;;;1794868;80;25343;-52
2023/06/02 07:43:27;;;;;;;11.20;4.77;;;;;;;;;;1795177;80;25412;-50
2023/06/02 07:45:54;;;;;;;14.93;9.83;;;;;;;;;;1794844;80;25504;-49
2023/06/02 07:48:21;;;;;;;8.30;5.30;;;;;;;;;;1794854;80;27880;-49
2023/06/02 07:50:48;;;;;;;20.15;18.45;;;;;;;;;;1780175;80;25282;-49
2023/06/02 07:53:17;;;;;;;6.40;4.28;;;;;;;;;;1777934;80;25500;-51
2023/06/02 07:55:44;;;;;;;11.28;4.90;;;;;;;;;;1777983;80;25910;-50
2023/06/02 07:58:11;;;;;;;12.82;4.58;;;;;;;;;;1777949;80;25481;-51
2023/06/02 08:00:38;;;;;;;9.25;4.72;;;;;;;;;;1777888;80;27207;-50
2023/06/02 08:03:05;;;;;;;9.88;4.45;;;;;;;;;;1777887;80;25741;-52
2023/06/02 08:05:33;;;;;;;8.70;4.50;;;;;;;;;;1778027;80;25316;-51
2023/06/02 08:08:00;;;;;;;7.03;4.45;;;;;;;;;;1778047;80;25886;-50
2023/06/02 08:10:28;;;;;;;10.28;4.70;;;;;;;;;;1778103;80;25361;-58
2023/06/02 08:12:57;;;;;;;13.90;5.22;;;;;;;;;;1778048;80;27291;-52
2023/06/02 08:15:25;;;;;;;9.33;4.53;;;;;;;;;;1778100;80;25463;-50
2023/06/02 08:17:52;;;;;;;12.85;7.12;;;;;;;;;;1778017;80;25478;-53
2023/06/02 08:20:19;;;;;;;10.53;5.20;;;;;;;;;;1778024;80;25405;-50
2023/06/02 08:22:46;;;;;;;16.67;5.33;;;;;;;;;;1778063;80;25546;-49
2023/06/02 08:25:15;;;;;;;11.83;9.10;;;;;;;;;;1777997;80;27239;-51
2023/06/02 08:27:47;;;;;;;13.22;5.28;;;;;;;;;;1777880;80;27058;-49
2023/06/02 08:30:13;;;;;;;8.65;4.87;;;;;;;;;;1747925;80;25520;-54
2023/06/02 08:32:40;;;;;;;10.80;5.20;;;;;;;;;;1778222;80;26090;-53
2023/06/02 08:35:07;;;;;;;10.18;4.37;;;;;;;;;;1778046;80;25360;-53
2023/06/02 08:37:35;;;;;;;9.85;4.80;;;;;;;;;;1778057;80;27370;-55
2023/06/02 08:40:05;;;;;;;11.95;4.60;;;;;;;;;;1777987;80;25860;-53
2023/06/02 08:42:32;;;;;;;8.68;4.60;;;;;;;;;;1778145;80;25370;-53
2023/06/02 08:44:59;;;;;;;6.25;4.45;;;;;;;;;;1777987;80;25443;-52
2023/06/02 08:47:30;;;;;;;6.78;4.80;;;;;;;;;;1778042;80;25294;-57
2023/06/02 08:50:02;;;;;;;12.60;5.00;;;;;;;;;;1784361;80;27264;-55
2023/06/02 08:52:32;;;;;;;29.67;27.58;;;;;;;;;;1794923;80;25321;-54
2023/06/02 08:55:03;;;;;;;24.20;21.95;;;;;;;;;;1795008;80;25362;-51
2023/06/02 08:57:30;;;;;;;18.35;16.50;;;;;;;;;;1794956;80;25372;-50
2023/06/02 08:59:59;;;;;;;8.78;4.12;;;;;;;;;;1794990;80;25296;-54
2023/06/02 09:02:26;;;;;;;43.05;39.98;;;;;;;;;;1795055;80;29439;-52
2023/06/02 09:04:53;;;;;;;7.92;4.08;;;;;;;;;;1794989;80;25334;-51
2023/06/02 09:07:20;;;;;;;9.25;5.17;;;;;;;;;;1794895;80;25469;-51
2023/06/02 09:09:51;;;;;;;10.53;3.83;;;;;;;;;;1794947;80;25346;-50
2023/06/02 09:12:19;;;;;;;10.85;4.22;;;;;;;;;;1794980;80;25521;-51
2023/06/02 09:14:49;;;;;;;32.13;30.00;;;;;;;;;;1795213;80;27271;-50
2023/06/02 09:17:28;;;;;;;31.73;29.42;;;;;;;;;;1794885;80;25530;-50
2023/06/02 09:20:10;;;;;;;10.75;4.75;;;;;;;;;;1795122;80;25299;-50
2023/06/02 09:22:33;;;;;;;18.20;16.00;;;;;;;;;;1793067;80;25508;-51
2023/06/02 09:25:00;;;;;;;11.00;3.75;;;;;;;;;;1795019;80;25470;-49
2023/06/02 09:27:28;;;;;;;10.63;4.30;;;;;;;;;;1794946;79;27120;-51
2023/06/02 09:30:02;;;;;;;10.88;4.28;;;;;;;;;;1794896;79;25482;-50
2023/06/02 09:32:30;;;;;;;12.95;11.83;;;;;;;;;;1795073;80;25483;-50
2023/06/02 09:34:57;;;;;;;13.38;7.87;;;;;;;;;;1795028;80;25881;-51
2023/06/02 09:37:24;;;;;;;21.02;13.18;;;;;;;;;;1794982;80;25472;-55
2023/06/02 09:39:56;;;;;;;24.98;14.38;;;;;;;;;;1794956;80;27290;-52
2023/06/02 09:42:25;;;;;;;17.98;11.22;;;;;;;;;;1794996;80;25583;-52
2023/06/02 09:45:05;;;;;;;44.05;40.30;;;;;;;;;;1795132;80;25374;-49
2023/06/02 09:47:41;;;;;;;16.17;4.80;;;;;;;;;;1794643;80;25386;-49
2023/06/02 09:50:13;;;;;;;20.17;18.15;;;;;;;;;;1789727;80;25349;-48
2023/06/02 09:52:40;;;;;;;52.78;49.10;;;;;;;;;;1777170;80;27344;-49
2023/06/02 09:55:08;;;;;;;26.02;23.67;;;;;;;;;;1777876;80;25377;-53
2023/06/02 09:57:37;;;;;;;64.83;59.87;;;;;;;;;;1778221;80;25364;-53
2023/06/02 10:00:11;;;;;;;72.20;66.97;;;;;;;;;;1773030;80;26441;-50
2023/06/02 10:02:35;;;;;;;78.85;73.62;;;;;;;;;;1777107;80;25457;-48
2023/06/02 10:05:03;;;;;;;71.15;66.25;;;;;;;;;;1777983;80;27255;-49
2023/06/02 10:07:39;;;;;;;80.38;74.77;;;;;;;;;;1777861;80;25530;-48
2023/06/02 10:10:31;;;;;;;78.90;73.40;;;;;;;;;;1777300;80;25463;-49
2023/06/02 10:13:18;;;;;;;78.25;72.85;;;;;;;;;;1777942;80;25606;-49
2023/06/02 10:16:09;;;;;;;12.82;5.22;;;;;;;;;;1777992;80;25381;-50
2023/06/02 10:18:52;;;;;;;79.60;74.07;;;;;;;;;;1777937;80;27276;-49
2023/06/02 10:21:45;;;;;;;14.63;4.90;;;;;;;;;;1778003;80;25528;-50
2023/06/02 10:24:25;;;;;;;14.60;4.62;;;;;;;;;;1778003;80;25318;-49
2023/06/02 10:27:05;;;;;;;8.33;4.15;;;;;;;;;;1777900;80;25537;-53
2023/06/02 10:29:34;;;;;;;9.98;4.22;;;;;;;;;;1777264;80;25540;-51
2023/06/02 10:32:20;;;;;;;7.62;3.90;;;;;;;;;;1778095;80;27856;-49
2023/06/02 10:34:52;;;;;;;6.92;3.42;;;;;;;;;;1777909;80;25413;-49
2023/06/02 10:37:21;;;;;;;7.10;2.87;;;;;;;;;;1778017;80;25300;-50
2023/06/02 10:39:52;;;;;;;7.70;3.55;;;;;;;;;;1778052;80;34978;-50
2023/06/02 10:42:23;;;;;;;8.50;2.92;;;;;;;;;;1778088;80;25309;-50
2023/06/02 10:44:52;;;;;;;8.48;3.08;;;;;;;;;;1777979;80;27808;-54
2023/06/02 10:47:23;;;;;;;10.30;3.85;;;;;;;;;;1777812;80;25645;-51
2023/06/02 10:50:01;;;;;;;5.37;2.25;;;;;;;;;;1778488;80;25297;-52
2023/06/02 10:52:32;;;;;;;13.88;2.72;;;;;;;;;;1794876;80;25543;-50
2023/06/02 10:55:12;;;;;;;13.28;5.87;;;;;;;;;;1794919;80;25297;-51
2023/06/02 10:57:51;;;;;;;8.43;3.12;;;;;;;;;;1794971;80;27647;-50
2023/06/02 11:00:39;;;;;;;8.10;1.67;;;;;;;;;;1794804;80;25339;-49
2023/06/02 11:03:12;;;;;;;5.28;1.57;;;;;;;;;;1794911;80;25488;-51
2023/06/02 11:05:39;;;;;;;4.87;1.67;;;;;;;;;;1794887;80;25458;-51
2023/06/02 11:08:18;;;;;;;4.35;1.62;;;;;;;;;;1794890;80;25325;-49
2023/06/02 11:10:51;;;;;;;3.17;1.77;;;;;;;;;;1795136;80;27555;-53
2023/06/02 11:13:20;;;;;;;6.78;2.27;;;;;;;;;;1794730;80;25768;-49
2023/06/02 11:16:00;;;;;;;5.75;2.10;;;;;;;;;;1794950;78;25518;-52
2023/06/02 11:18:32;;;;;;;7.50;2.83;;;;;;;;;;1794871;80;26550;-51
2023/06/02 11:21:06;;;;;;;16.07;10.98;;;;;;;;;;1794902;78;25293;-50
2023/06/02 11:23:33;;;;;;;10.43;3.02;;;;;;;;;;1792580;80;27221;-50
2023/06/02 11:26:06;;;;;;;5.70;2.67;;;;;;;;;;1794825;80;25523;-49
2023/06/02 11:28:33;;;;;;;5.10;2.08;;;;;;;;;;1794927;80;25326;-51
2023/06/02 11:31:11;;;;;;;7.78;3.55;;;;;;;;;;1794884;80;25490;-48
2023/06/02 11:33:41;;;;;;;6.83;3.70;;;;;;;;;;1795200;80;25360;-51
2023/06/02 11:36:11;;;;;;;13.43;4.87;;;;;;;;;;1794910;80;27303;-50
2023/06/02 11:38:38;;;;;;;;;;;;;;;;;;1797593;79;25474;-49
2023/06/02 11:41:17;;;;;;;8.00;2.50;;;;;;;;;;1795041;80;25366;-50
2023/06/02 11:43:47;;;;;;;4.17;2.02;;;;;;;;;;1795163;80;25949;-51
2023/06/02 11:46:18;;;;;;;5.83;2.27;;;;;;;;;;1795111;80;25539;-54
2023/06/02 11:48:46;;;;;;;8.38;2.22;;;;;;;;;;1795135;80;27159;-54
2023/06/02 11:51:15;;;;;;;7.45;2.02;;;;;;;;;;1794938;80;25730;-55
2023/06/02 11:53:46;;;;;;;3.08;2.20;;;;;;;;;;1795166;80;25285;-55
2023/06/02 11:56:17;;;;;;;6.35;2.10;;;;;;;;;;1795079;80;25466;-53
2023/06/02 11:58:48;;;;;;;5.55;1.90;;;;;;;;;;1795166;80;25516;-51
2023/06/02 12:01:18;;;;;;;5.75;2.83;;;;;;;;;;1795113;80;27274;-54
2023/06/02 12:03:55;;;;;;;4.35;2.20;;;;;;;;;;1795020;80;25554;-50
2023/06/02 12:06:22;;;;;;;9.33;2.08;;;;;;;;;;1795182;80;25419;-52
2023/06/02 12:08:49;;;;;;;6.67;2.37;;;;;;;;;;1794987;80;25437;-51
2023/06/02 12:11:18;;;;;;;8.80;2.22;;;;;;;;;;1795054;80;25324;-53
2023/06/02 12:14:02;;;;;;;11.27;2.67;;;;;;;;;;1795349;80;27665;-51
2023/06/02 12:16:29;;;;;;;5.58;1.90;;;;;;;;;;1795001;80;25479;-52
2023/06/02 12:19:16;;;;;;;8.50;2.40;;;;;;;;;;1795049;80;25458;-52
2023/06/02 12:21:46;;;;;;;10.50;1.72;;;;;;;;;;1795041;78;25517;-53
2023/06/02 12:24:33;;;;;;;5.05;2.00;;;;;;;;;;1795201;80;25308;-51
2023/06/02 12:27:02;;;;;;;5.47;1.65;;;;;;;;;;1795060;80;27210;-51
2023/06/02 12:29:30;;;;;;;9.63;1.87;;;;;;;;;;1794905;80;25313;-52
2023/06/02 12:31:57;;;;;;;4.95;1.67;;;;;;;;;;1793669;80;25657;-55
2023/06/02 12:34:25;;;;;;;14.75;8.98;;;;;;;;;;1794979;80;25325;-50
2023/06/02 12:36:52;;;;;;;17.23;11.70;;;;;;;;;;1795078;80;25348;-50
2023/06/02 12:39:19;;;;;;;11.40;7.03;;;;;;;;;;1794995;80;27217;-51
2023/06/02 12:41:46;;;;;;;9.18;2.80;;;;;;;;;;1794928;80;25354;-51
2023/06/02 12:44:13;;;;;;;7.42;2.10;;;;;;;;;;1795003;80;25527;-50
2023/06/02 12:46:41;;;;;;;2.92;1.62;;;;;;;;;;1794968;80;25407;-50
2023/06/02 12:49:09;;;;;;;5.25;1.62;;;;;;;;;;1795006;80;25507;-49
2023/06/02 12:51:36;;;;;;;3.12;1.80;;;;;;;;;;1794901;80;27214;-48
2023/06/02 12:54:04;;;;;;;3.65;1.82;;;;;;;;;;1794971;80;25650;-49
2023/06/02 12:56:31;;;;;;;5.40;1.75;;;;;;;;;;1794972;80;25451;-48
2023/06/02 12:58:58;;;;;;;5.97;2.12;;;;;;;;;;1794985;80;25425;-48
2023/06/02 13:01:25;;;;;;;4.65;1.90;;;;;;;;;;1794998;80;25469;-49
2023/06/02 13:03:53;;;;;;;5.55;2.00;;;;;;;;;;1795009;80;27553;-50
2023/06/02 13:06:21;;;;;;;4.42;2.90;;;;;;;;;;1794897;80;25352;-48
2023/06/02 13:08:48;;;;;;;4.95;2.05;;;;;;;;;;1794416;80;25608;-49
2023/06/02 13:11:16;;;;;;;6.92;1.80;;;;;;;;;;1794631;78;25964;-49
2023/06/02 13:13:45;;;;;;;6.22;1.90;;;;;;;;;;1795017;80;25591;-50
2023/06/02 13:16:12;;;;;;;3.95;2.02;;;;;;;;;;1794975;80;27096;-50
2023/06/02 13:18:41;;;;;;;4.92;1.92;;;;;;;;;;1794915;80;25301;-49
2023/06/02 13:21:08;;;;;;;5.03;1.75;;;;;;;;;;1794935;80;25439;-49
2023/06/02 13:23:35;;;;;;;2.95;1.85;;;;;;;;;;1794945;79;25456;-50
2023/06/02 13:26:02;;;;;;;3.83;1.92;;;;;;;;;;1794990;80;25533;-48
2023/06/02 13:28:30;;;;;;;5.33;2.33;;;;;;;;;;1794936;80;27210;-50
2023/06/02 13:30:58;;;;;;;8.50;2.98;;;;;;;;;;1794860;80;25545;-49
2023/06/02 13:33:25;;;;;;;4.90;2.55;;;;;;;;;;1794859;80;25478;-50
2023/06/02 13:35:52;;;;;;;5.30;2.27;;;;;;;;;;1794818;80;25963;-50
2023/06/02 13:38:20;;;;;;;4.20;1.40;;;;;;;;;;1794953;80;25357;-50
2023/06/02 13:40:47;;;;;;;10.32;2.80;;;;;;;;;;1794873;80;27214;-50
2023/06/02 13:43:14;;;;;;;4.42;1.80;;;;;;;;;;1794769;80;25451;-50
2023/06/02 13:45:41;;;;;;;4.65;2.40;;;;;;;;;;1794864;80;25502;-54
2023/06/02 13:48:08;;;;;;;3.05;1.60;;;;;;;;;;1794885;80;25649;-53
2023/06/02 13:50:35;;;;;;;2.95;1.57;;;;;;;;;;1794971;80;25503;-54
2023/06/02 13:53:03;;;;;;;4.87;1.85;;;;;;;;;;1779749;80;27294;-50
2023/06/02 13:55:31;;;;;;;2.10;1.60;;;;;;;;;;1777904;80;25724;-53
2023/06/02 13:57:59;;;;;;;9.58;2.05;;;;;;;;;;1778138;80;25500;-51
2023/06/02 14:00:26;;;;;;;3.10;1.80;;;;;;;;;;1777955;80;25459;-53
2023/06/02 14:02:53;;;;;;;3.60;1.92;;;;;;;;;;1778111;80;25470;-52
2023/06/02 14:05:20;;;;;;;5.97;2.05;;;;;;;;;;1778008;80;27239;-52
2023/06/02 14:07:47;;;;;;;6.47;1.70;;;;;;;;;;1777868;80;25368;-52
2023/06/02 14:10:14;;;;;;;4.10;1.92;;;;;;;;;;1778002;80;25490;-51
2023/06/02 14:12:41;;;;;;;2.80;1.57;;;;;;;;;;1777747;80;25327;-51
2023/06/02 14:15:09;;;;;;;3.52;1.92;;;;;;;;;;1776811;80;25586;-48
2023/06/02 14:17:37;;;;;;;4.75;2.10;;;;;;;;;;1778101;80;27198;-51
2023/06/02 14:20:06;;;;;;;3.37;1.67;;;;;;;;;;1777985;80;25526;-50
2023/06/02 14:22:32;;;;;;;6.42;2.27;;;;;;;;;;1778132;80;32316;-51
2023/06/02 14:24:59;;;;;;;3.72;1.67;;;;;;;;;;1777863;80;25525;-48
2023/06/02 14:27:27;;;;;;;2.72;1.65;;;;;;;;;;1777955;80;25423;-52
2023/06/02 14:29:54;;;;;;;8.30;1.60;;;;;;;;;;1777918;80;27211;-49
2023/06/02 14:32:21;;;;;;;3.55;1.70;;;;;;;;;;1777859;80;25532;-49
2023/06/02 14:34:48;;;;;;;10.43;5.72;;;;;;;;;;1777974;80;25511;-50
2023/06/02 14:37:15;;;;;;;4.75;3.45;;;;;;;;;;1777926;80;25933;-49
2023/06/02 14:39:42;;;;;;;8.63;2.55;;;;;;;;;;1777354;80;25634;-52
2023/06/02 14:42:09;;;;;;;3.90;1.80;;;;;;;;;;1777986;80;26926;-50
2023/06/02 14:44:36;;;;;;;2.40;1.60;;;;;;;;;;1777897;80;25525;-53